Home > Products > Valid Products > TAF

000
FTUS43 KFSD 201643 AAB
TAFFSD
TAF AMD
KFSD 201643Z 2017/2112 17008KT 4SM BR OVC008=



000
FTUS43 KFSD 201555 AAA
TAFHON
TAF AMD
KHON 201555Z 2016/2112 18009KT 1/2SM FG OVC002
      TEMPO 2016/2018 1/4SM FG
     FM201800 17008KT 6SM BR OVC005
     FM210300 17006KT 2SM BR BKN008=



000
FTUS43 KFSD 201355 AAA
TAFSUX
TAF AMD
KSUX 201355Z 2014/2112 16006KT 4SM BR OVC008=



000
FTUS43 KFSD 201355 AAA
TAFSUX
TAF AMD
KSUX 201355Z 2014/2112 16006KT 4SM BR OVC008=



000
FTUS43 KFSD 201120
TAFHON
TAF
KHON 201120Z 2012/2112 16008KT 1/2SM FG OVC003
     FM201600 17008KT 6SM BR BKN005
     FM210300 17006KT 2SM BR BKN008=



000
FTUS43 KFSD 201120
TAFSUX
TAF
KSUX 201120Z 2012/2112 16006KT 3SM BR OVC004
     FM201700 16007KT 6SM BR OVC008
     FM210300 16006KT 4SM BR OVC006=



000
FTUS43 KFSD 201120
TAFFSD
TAF
KFSD 201120Z 2012/2112 17007KT 4SM BR OVC008
     FM201700 17008KT P6SM OVC010
     FM210600 17006KT 4SM BR OVC008=



000
FTUS43 KFSD 201120
TAFSUX
TAF
KSUX 201120Z 2012/2112 16006KT 3SM BR OVC004
     FM201700 16007KT 6SM BR OVC008
     FM210300 16006KT 4SM BR OVC006=



000
FTUS43 KFSD 200932 AAA
TAFSUX
TAF AMD
KSUX 200932Z 2010/2106 16010KT 4SM BR OVC005
     FM201700 18012KT P6SM OVC015=



000
FTUS43 KFSD 200932 AAA
TAFSUX
TAF AMD
KSUX 200932Z 2010/2106 16010KT 4SM BR OVC005
     FM201700 18012KT P6SM OVC015=



000
FTUS43 KFSD 200522
TAFSUX
TAF
KSUX 200522Z 2006/2106 16010KT P6SM OVC013
     FM201100 15007KT 6SM BR OVC008
     FM201700 18012KT P6SM OVC015=



000
FTUS43 KFSD 200522
TAFFSD
TAF
KFSD 200522Z 2006/2106 17010KT P6SM OVC012
     FM201100 17007KT 6SM BR OVC008
     FM201700 17012KT P6SM OVC012=



000
FTUS43 KFSD 200522
TAFSUX
TAF
KSUX 200522Z 2006/2106 16010KT P6SM OVC013
     FM201100 15007KT 6SM BR OVC008
     FM201700 18012KT P6SM OVC015=



000
FTUS43 KFSD 200522
TAFHON
TAF
KHON 200522Z 2006/2106 18008KT 5SM BR OVC006
     FM201700 17009KT P6SM BKN010
     FM210200 17006KT 2SM BR BKN004=



000
FTUS43 KFSD 200441 AAB
TAFHON
TAF AMD
KHON 200441Z 2005/2024 18008KT 5SM BR OVC006
     FM201700 17008KT P6SM BKN009=



000
FTUS43 KFSD 200103 AAA
TAFHON
TAF AMD
KHON 200103Z 2001/2024 17011KT 6SM BR OVC005
     FM200600 18005KT 2SM BR OVC004
     FM201700 17008KT 6SM BR BKN007=



000
FTUS43 KFSD 192326
TAFHON
TAF
KHON 192326Z 2000/2024 17007KT 5SM BR OVC006
     FM200600 18005KT 2SM BR OVC004
     FM201700 17008KT 6SM BR BKN007=



000
FTUS43 KFSD 192326
TAFSUX
TAF
KSUX 192326Z 2000/2024 18012KT P6SM OVC013
     FM200800 15007KT 4SM BR OVC007
     FM201700 16009KT P6SM OVC012=



000
FTUS43 KFSD 192326
TAFSUX
TAF
KSUX 192326Z 2000/2024 18012KT P6SM OVC013
     FM200800 15007KT 4SM BR OVC007
     FM201700 16009KT P6SM OVC012=



000
FTUS43 KFSD 192326
TAFFSD
TAF
KFSD 192326Z 2000/2024 18012KT P6SM OVC007
     FM200500 17004KT 4SM BR OVC006
     FM201200 17005KT 2SM BR OVC004
     FM201500 17007KT 4SM BR OVC006
     FM201700 17007KT P6SM OVC008=



000
FTUS43 KFSD 191730
TAFSUX
TAF
KSUX 191730Z 1918/2018 17009KT P6SM OVC013
     FM200500 15007KT 4SM BR OVC007=



000
FTUS43 KFSD 191730
TAFHON
TAF
KHON 191730Z 1918/2018 18012KT 3SM BR OVC004
     FM192000 18011KT 5SM BR OVC006
     FM192300 17007KT 2SM BR OVC004=



000
FTUS43 KFSD 191730
TAFFSD
TAF
KFSD 191730Z 1918/2018 18011KT P6SM OVC007
     FM200300 17007KT 4SM BR OVC007=



000
FTUS43 KFSD 191730
TAFSUX
TAF
KSUX 191730Z 1918/2018 17009KT P6SM OVC013
     FM200500 15007KT 4SM BR OVC007=



000
FTUS43 KFSD 191702 AAB
TAFSUX
TAF AMD
KSUX 191702Z 1917/2012 18009KT P6SM OVC015
     FM200200 15007KT P6SM OVC015=



000
FTUS43 KFSD 191702 AAB
TAFSUX
TAF AMD
KSUX 191702Z 1917/2012 18009KT P6SM OVC015
     FM200200 15007KT P6SM OVC015=



000
FTUS43 KFSD 191701 AAB
TAFFSD
TAF AMD
KFSD 191701Z 1917/2012 18012KT P6SM OVC007
     FM200100 17007KT P6SM OVC007=



000
FTUS43 KFSD 191455 AAA
TAFHON
TAF AMD
KHON 191455Z 1915/2012 17010KT 3SM BR OVC005
     FM191700 17010KT 5SM BR OVC008
     FM191900 16008KT P6SM BKN012 OVC025
     FM200100 17008KT P6SM BKN007 OVC015
     FM200600 18006KT 5SM BR OVC007=



000
FTUS43 KFSD 191448 AAA
TAFSUX
TAF AMD
KSUX 191448Z 1915/2012 16005KT 5SM BR OVC018
     FM191700 16008KT P6SM BKN025
     FM200200 15007KT P6SM OVC015
     FM200600 14007KT P6SM SCT007 OVC015=



000
FTUS43 KFSD 191448 AAA
TAFSUX
TAF AMD
KSUX 191448Z 1915/2012 16005KT 5SM BR OVC018
     FM191700 16008KT P6SM BKN025
     FM200200 15007KT P6SM OVC015
     FM200600 14007KT P6SM SCT007 OVC015=



000
FTUS43 KFSD 191447 AAA
TAFFSD
TAF AMD
KFSD 191447Z 1915/2012 19007KT P6SM OVC008
     FM191800 16008KT P6SM OVC015
     FM200100 16008KT P6SM BKN007 OVC015
     FM200700 16007KT P6SM OVC007=



000
FTUS43 KFSD 191128
TAFSUX
TAF
KSUX 191128Z 1912/2012 16005KT P6SM SCT015 OVC025
      TEMPO 1912/1914 5SM BR
     FM191700 16008KT P6SM BKN025
     FM200200 15007KT P6SM OVC015
     FM200600 14007KT P6SM SCT007 OVC015=



000
FTUS43 KFSD 191128
TAFFSD
TAF
KFSD 191128Z 1912/2012 19007KT P6SM OVC012
     FM191800 16008KT P6SM BKN015 OVC025
     FM200100 16008KT P6SM BKN007 OVC015
     FM200700 16007KT P6SM OVC007=



000
FTUS43 KFSD 191128
TAFHON
TAF
KHON 191128Z 1912/2012 18010KT P6SM OVC007
      TEMPO 1912/1914 5SM BR
     FM191800 16008KT P6SM BKN012 OVC025
     FM200100 17008KT P6SM BKN007 OVC015
     FM200600 18006KT 5SM BR OVC007=



000
FTUS43 KFSD 191128
TAFSUX
TAF
KSUX 191128Z 1912/2012 16005KT P6SM SCT015 OVC025
      TEMPO 1912/1914 5SM BR
     FM191700 16008KT P6SM BKN025
     FM200200 15007KT P6SM OVC015
     FM200600 14007KT P6SM SCT007 OVC015=



000
FTUS43 KFSD 190522
TAFSUX
TAF
KSUX 190522Z 1906/2006 16005KT 5SM BR SCT008 OVC015
     FM191500 16008KT P6SM BKN015=



000
FTUS43 KFSD 190522
TAFFSD
TAF
KFSD 190522Z 1906/2006 17006KT P6SM OVC018
     FM191100 16007KT P6SM SCT008 OVC015=



000
FTUS43 KFSD 190522
TAFHON
TAF
KHON 190522Z 1906/2006 16007KT 5SM BR SCT006 BKN015
      TEMPO 1911/1915 2SM BR BKN006
     FM191800 16008KT P6SM BKN015=



000
FTUS43 KFSD 190522
TAFSUX
TAF
KSUX 190522Z 1906/2006 16005KT 5SM BR SCT008 OVC015
     FM191500 16008KT P6SM BKN015=



000
FTUS43 KFSD 182320
TAFSUX
TAF
KSUX 182320Z 1900/1924 16005KT P6SM SCT008 OVC015=



000
FTUS43 KFSD 182320
TAFSUX
TAF
KSUX 182320Z 1900/1924 16005KT P6SM SCT008 OVC015=



000
FTUS43 KFSD 182320
TAFHON
TAF
KHON 182320Z 1900/1924 16007KT P6SM OVC015
     FM191000 16007KT 5SM BR SCT004 OVC012
      TEMPO 1911/1914 1SM BR BKN004
     FM191600 16008KT P6SM OVC007=



000
FTUS43 KFSD 182320
TAFFSD
TAF
KFSD 182320Z 1900/1924 17006KT P6SM OVC012
     FM191400 16007KT P6SM SCT008 OVC015=



000
FTUS43 KFSD 181833 AAA
TAFFSD
TAF AMD
KFSD 181833Z 1819/1918 17006KT P6SM OVC012=



000
FTUS43 KFSD 181738
TAFFSD
TAF
KFSD 181738Z 1818/1918 16006KT P6SM FEW010 OVC050
      TEMPO 1818/1820 BKN012
     FM182200 16005KT P6SM SCT008 OVC015=



000
FTUS43 KFSD 181738
TAFHON
TAF
KHON 181738Z 1818/1918 16007KT P6SM OVC015
     FM190900 16007KT P6SM SCT008 OVC012=



000
FTUS43 KFSD 181738
TAFSUX
TAF
KSUX 181738Z 1818/1918 16006KT P6SM OVC060
     FM182000 16005KT P6SM SCT008 OVC015=



000
FTUS43 KFSD 181738
TAFSUX
TAF
KSUX 181738Z 1818/1918 16006KT P6SM OVC060
     FM182000 16005KT P6SM SCT008 OVC015=



000
FTUS43 KFSD 181625 AAA
TAFHON
TAF AMD
KHON 181625Z 1816/1912 16009KT P6SM OVC020
     FM181800 16009KT P6SM SCT008 OVC013
     FM182200 17005KT P6SM OVC015
     FM190300 16004KT P6SM OVC015
      TEMPO 1905/1909 -SN BKN007=



000
FTUS43 KFSD 181624 AAA
TAFSUX
TAF AMD
KSUX 181624Z 1816/1912 14006KT P6SM BKN015 OVC070
      TEMPO 1816/1818 SCT015 OVC070
     FM182300 17005KT P6SM OVC020
     FM190300 14006KT P6SM BKN012 OVC030
      TEMPO 1905/1909 -SN BKN007=



000
FTUS43 KFSD 181122
TAFSUX
TAF
KSUX 181122Z 1812/1912 12006KT P6SM SCT012 OVC060
     FM181500 14005KT P6SM OVC008
      TEMPO 1815/1819 4SM -SN
     FM182300 17005KT P6SM OVC020
     FM190300 14006KT P6SM BKN012 OVC030
      TEMPO 1905/1909 -SN BKN007=



000
FTUS43 KFSD 181122
TAFHON
TAF
KHON 181122Z 1812/1912 14005KT P6SM OVC015
     FM181600 16005KT P6SM -SN OVC008
     FM182200 17005KT P6SM OVC015
     FM190300 16004KT P6SM OVC015
      TEMPO 1905/1909 -SN BKN007=



000
FTUS43 KFSD 181122
TAFFSD
TAF
KFSD 181122Z 1812/1912 11005KT P6SM SCT015 OVC070
     FM181700 14005KT P6SM -SN BKN008 OVC050
     FM182200 16005KT P6SM OVC015
     FM190400 16004KT P6SM BKN015 OVC030
      TEMPO 1906/1910 -SN BKN007=



000
FTUS43 KFSD 181122
TAFSUX
TAF
KSUX 181122Z 1812/1912 12006KT P6SM SCT012 OVC060
     FM181500 14005KT P6SM OVC008
      TEMPO 1815/1819 4SM -SN
     FM182300 17005KT P6SM OVC020
     FM190300 14006KT P6SM BKN012 OVC030
      TEMPO 1905/1909 -SN BKN007=



000
FTUS43 KFSD 180540
TAFFSD
TAF
KFSD 180540Z 1806/1906 11005KT P6SM BKN100
     FM181200 14005KT P6SM SCT012 OVC050
     FM181600 16005KT P6SM -SN OVC008
     FM182200 17005KT P6SM OVC015=



000
FTUS43 KFSD 180540
TAFHON
TAF
KHON 180540Z 1806/1906 09005KT P6SM OVC100
     FM180800 15007KT P6SM SCT012
     FM181000 14005KT P6SM BKN015
     FM181400 16005KT P6SM -SN OVC008
     FM182200 17005KT P6SM OVC015=



000
FTUS43 KFSD 180540
TAFSUX
TAF
KSUX 180540Z 1806/1906 11005KT P6SM OVC070
     FM181000 12006KT P6SM SCT012 OVC040
     FM181400 14005KT P6SM OVC008
      TEMPO 1814/1818 4SM -SN
     FM190000 17005KT P6SM OVC020=



000
FTUS43 KFSD 180540
TAFSUX
TAF
KSUX 180540Z 1806/1906 11005KT P6SM OVC070
     FM181000 12006KT P6SM SCT012 OVC040
     FM181400 14005KT P6SM OVC008
      TEMPO 1814/1818 4SM -SN
     FM190000 17005KT P6SM OVC020=



000
FTUS43 KFSD 180220 AAA
TAFHON
TAF AMD
KHON 180220Z 1802/1824 09005KT 5SM BR OVC100
     FM180800 15007KT P6SM SCT012
     FM181100 14005KT P6SM OVC008=



000
FTUS43 KFSD 172320
TAFSUX
TAF
KSUX 172320Z 1800/1824 VRB04KT P6SM OVC100
     FM180600 11005KT P6SM OVC090
     FM181000 12006KT P6SM SCT012 OVC040
     FM181400 14005KT P6SM OVC012=



000
FTUS43 KFSD 172320
TAFHON
TAF
KHON 172320Z 1800/1824 09005KT P6SM BKN100
     FM180800 15007KT P6SM SCT012
     FM181100 14005KT P6SM OVC008=



000
FTUS43 KFSD 172320
TAFSUX
TAF
KSUX 172320Z 1800/1824 VRB04KT P6SM OVC100
     FM180600 11005KT P6SM OVC090
     FM181000 12006KT P6SM SCT012 OVC040
     FM181400 14005KT P6SM OVC012=



000
FTUS43 KFSD 172320
TAFFSD
TAF
KFSD 172320Z 1800/1824 VRB03KT P6SM BKN250
     FM180200 11005KT P6SM BKN100
     FM181200 14005KT P6SM SCT012 OVC050
     FM181500 14005KT P6SM OVC008=



000
FTUS43 KFSD 171742
TAFSUX
TAF
KSUX 171742Z 1718/1818 VRB04KT P6SM SCT250
     FM180600 11005KT P6SM OVC090
     FM181000 12006KT P6SM SCT020 OVC040=



000
FTUS43 KFSD 171742
TAFFSD
TAF
KFSD 171742Z 1718/1818 VRB03KT P6SM FEW250
     FM180200 11004KT P6SM BKN100
     FM181500 14005KT P6SM SCT020 OVC040=



000
FTUS43 KFSD 171742
TAFHON
TAF
KHON 171742Z 1718/1818 12006KT P6SM FEW003
     FM180000 12006KT P6SM BKN100
     FM181000 15007KT P6SM BKN015=



000
FTUS43 KFSD 171742
TAFSUX
TAF
KSUX 171742Z 1718/1818 VRB04KT P6SM SCT250
     FM180600 11005KT P6SM OVC090
     FM181000 12006KT P6SM SCT020 OVC040=



    US Dept of Commerce
    National Oceanic and Atmospheric Administration
    National Weather Service
    1325 East West Highway
    Silver Spring, MD 20910
    Page Author: NWS Internet Services Team
Disclaimer
Information Quality
Credits
Glossary
Privacy Policy
Freedom of Information Act (FOIA)
About Us
Career Opportunities